sensor_id;sensor_type;location;lat;lon;timestamp;temperature;humidity
38568;DHT22;24338;48.280;10.970;2022-09-21T00:01:18;5.80;99.90
38568;DHT22;24338;48.280;10.970;2022-09-21T00:06:20;5.80;99.90
38568;DHT22;24338;48.280;10.970;2022-09-21T00:08:48;5.70;99.90
38568;DHT22;24338;48.280;10.970;2022-09-21T00:11:34;5.70;99.90
38568;DHT22;24338;48.280;10.970;2022-09-21T00:14:07;5.70;99.90
38568;DHT22;24338;48.280;10.970;2022-09-21T00:16:36;5.70;99.90
38568;DHT22;24338;48.280;10.970;2022-09-21T00:19:04;5.70;99.90
38568;DHT22;24338;48.280;10.970;2022-09-21T00:21:31;5.70;99.90
38568;DHT22;24338;48.280;10.970;2022-09-21T00:23:59;5.70;99.90
38568;DHT22;24338;48.280;10.970;2022-09-21T00:26:28;5.70;99.90
38568;DHT22;24338;48.280;10.970;2022-09-21T00:28:58;5.60;99.90
38568;DHT22;24338;48.280;10.970;2022-09-21T00:31:26;5.70;99.90
38568;DHT22;24338;48.280;10.970;2022-09-21T00:33:54;5.60;99.90
38568;DHT22;24338;48.280;10.970;2022-09-21T00:36:24;5.70;99.90
38568;DHT22;24338;48.280;10.970;2022-09-21T00:38:55;5.60;99.90
38568;DHT22;24338;48.280;10.970;2022-09-21T00:41:24;5.60;99.90
38568;DHT22;24338;48.280;10.970;2022-09-21T00:46:45;5.60;99.90
38568;DHT22;24338;48.280;10.970;2022-09-21T00:49:13;5.60;99.90
38568;DHT22;24338;48.280;10.970;2022-09-21T00:51:40;5.60;99.90
38568;DHT22;24338;48.280;10.970;2022-09-21T00:54:11;5.60;99.90
38568;DHT22;24338;48.280;10.970;2022-09-21T00:56:41;5.50;99.90
38568;DHT22;24338;48.280;10.970;2022-09-21T00:59:11;5.50;99.90
38568;DHT22;24338;48.280;10.970;2022-09-21T01:01:39;5.50;99.90
38568;DHT22;24338;48.280;10.970;2022-09-21T01:04:09;5.40;99.90
38568;DHT22;24338;48.280;10.970;2022-09-21T01:06:37;5.40;99.90
38568;DHT22;24338;48.280;10.970;2022-09-21T01:09:05;5.30;99.90
38568;DHT22;24338;48.280;10.970;2022-09-21T01:25:29;5.10;99.90
38568;DHT22;24338;48.280;10.970;2022-09-21T01:30:48;5.00;99.90
38568;DHT22;24338;48.280;10.970;2022-09-21T01:33:28;5.00;99.90
38568;DHT22;24338;48.280;10.970;2022-09-21T01:36:06;5.00;99.90
38568;DHT22;24338;48.280;10.970;2022-09-21T01:38:40;5.00;99.90
38568;DHT22;24338;48.280;10.970;2022-09-21T01:41:11;5.00;99.90
38568;DHT22;24338;48.280;10.970;2022-09-21T01:43:45;5.10;99.90
38568;DHT22;24338;48.280;10.970;2022-09-21T01:46:19;5.10;99.90
38568;DHT22;24338;48.280;10.970;2022-09-21T01:48:51;5.10;99.90
38568;DHT22;24338;48.280;10.970;2022-09-21T01:51:20;5.10;99.90
38568;DHT22;24338;48.280;10.970;2022-09-21T01:53:51;5.00;99.90
38568;DHT22;24338;48.280;10.970;2022-09-21T01:56:26;5.10;99.90
38568;DHT22;24338;48.280;10.970;2022-09-21T01:59:05;5.10;99.90
38568;DHT22;24338;48.280;10.970;2022-09-21T02:01:38;5.00;99.90
38568;DHT22;24338;48.280;10.970;2022-09-21T02:04:11;5.00;99.90
38568;DHT22;24338;48.280;10.970;2022-09-21T02:06:41;4.90;99.90
38568;DHT22;24338;48.280;10.970;2022-09-21T02:09:10;4.90;99.90
38568;DHT22;24338;48.280;10.970;2022-09-21T02:11:37;4.90;99.90
38568;DHT22;24338;48.280;10.970;2022-09-21T02:14:15;4.80;99.90
38568;DHT22;24338;48.280;10.970;2022-09-21T02:17:09;4.80;99.90
38568;DHT22;24338;48.280;10.970;2022-09-21T02:19:56;4.70;99.90
38568;DHT22;24338;48.280;10.970;2022-09-21T02:25:20;4.70;99.90
38568;DHT22;24338;48.280;10.970;2022-09-21T02:28:04;4.70;99.90
38568;DHT22;24338;48.280;10.970;2022-09-21T02:30:34;4.70;99.90
38568;DHT22;24338;48.280;10.970;2022-09-21T02:33:14;4.60;99.90
38568;DHT22;24338;48.280;10.970;2022-09-21T02:36:07;4.60;99.90
38568;DHT22;24338;48.280;10.970;2022-09-21T02:38:37;4.60;99.90
38568;DHT22;24338;48.280;10.970;2022-09-21T02:46:50;4.50;99.90
38568;DHT22;24338;48.280;10.970;2022-09-21T02:49:31;4.50;99.90
38568;DHT22;24338;48.280;10.970;2022-09-21T02:52:04;4.40;99.90
38568;DHT22;24338;48.280;10.970;2022-09-21T02:54:33;4.40;99.90
38568;DHT22;24338;48.280;10.970;2022-09-21T02:57:02;4.40;99.90
38568;DHT22;24338;48.280;10.970;2022-09-21T02:59:29;4.40;99.90
38568;DHT22;24338;48.280;10.970;2022-09-21T03:01:56;4.30;99.90
38568;DHT22;24338;48.280;10.970;2022-09-21T03:04:24;4.30;99.90
38568;DHT22;24338;48.280;10.970;2022-09-21T03:06:51;4.30;99.90
38568;DHT22;24338;48.280;10.970;2022-09-21T03:09:18;4.20;99.90
38568;DHT22;24338;48.280;10.970;2022-09-21T03:11:46;4.20;99.90
38568;DHT22;24338;48.280;10.970;2022-09-21T03:14:13;4.20;99.90
38568;DHT22;24338;48.280;10.970;2022-09-21T03:16:40;4.20;99.90
38568;DHT22;24338;48.280;10.970;2022-09-21T03:19:07;4.10;99.90
38568;DHT22;24338;48.280;10.970;2022-09-21T03:21:34;4.10;99.90
38568;DHT22;24338;48.280;10.970;2022-09-21T03:24:01;4.10;99.90
38568;DHT22;24338;48.280;10.970;2022-09-21T03:26:28;4.00;99.90
38568;DHT22;24338;48.280;10.970;2022-09-21T03:28:55;4.00;99.90
38568;DHT22;24338;48.280;10.970;2022-09-21T03:31:22;4.00;99.90
38568;DHT22;24338;48.280;10.970;2022-09-21T03:33:49;4.00;99.90
38568;DHT22;24338;48.280;10.970;2022-09-21T03:36:16;4.00;99.90
38568;DHT22;24338;48.280;10.970;2022-09-21T03:38:43;3.90;99.90
38568;DHT22;24338;48.280;10.970;2022-09-21T03:41:10;3.90;99.90
38568;DHT22;24338;48.280;10.970;2022-09-21T03:43:37;3.90;99.90
38568;DHT22;24338;48.280;10.970;2022-09-21T03:46:04;3.90;99.90
38568;DHT22;24338;48.280;10.970;2022-09-21T03:48:31;3.90;99.90
38568;DHT22;24338;48.280;10.970;2022-09-21T03:50:58;3.90;99.90
38568;DHT22;24338;48.280;10.970;2022-09-21T03:53:25;3.80;99.90
38568;DHT22;24338;48.280;10.970;2022-09-21T03:55:52;3.90;99.90
38568;DHT22;24338;48.280;10.970;2022-09-21T03:58:18;3.90;99.90
38568;DHT22;24338;48.280;10.970;2022-09-21T04:00:45;3.90;99.90
38568;DHT22;24338;48.280;10.970;2022-09-21T04:03:12;3.90;99.90
38568;DHT22;24338;48.280;10.970;2022-09-21T04:05:39;3.80;99.90
38568;DHT22;24338;48.280;10.970;2022-09-21T04:08:06;3.70;99.90
38568;DHT22;24338;48.280;10.970;2022-09-21T04:10:33;3.70;99.90
38568;DHT22;24338;48.280;10.970;2022-09-21T04:13:00;3.70;99.90
38568;DHT22;24338;48.280;10.970;2022-09-21T04:15:28;3.70;99.90
38568;DHT22;24338;48.280;10.970;2022-09-21T04:17:56;3.80;99.90
38568;DHT22;24338;48.280;10.970;2022-09-21T04:20:23;3.70;99.90
38568;DHT22;24338;48.280;10.970;2022-09-21T04:22:50;3.80;99.90
38568;DHT22;24338;48.280;10.970;2022-09-21T04:25:18;3.70;99.90
38568;DHT22;24338;48.280;10.970;2022-09-21T04:27:45;3.70;99.90
38568;DHT22;24338;48.280;10.970;2022-09-21T04:30:13;3.70;99.90
38568;DHT22;24338;48.280;10.970;2022-09-21T04:32:41;3.70;99.90
38568;DHT22;24338;48.280;10.970;2022-09-21T04:35:08;3.70;99.90
38568;DHT22;24338;48.280;10.970;2022-09-21T04:37:35;3.70;99.90
38568;DHT22;24338;48.280;10.970;2022-09-21T04:40:03;3.60;99.90
38568;DHT22;24338;48.280;10.970;2022-09-21T04:42:30;3.70;99.90
38568;DHT22;24338;48.280;10.970;2022-09-21T04:44:57;3.60;99.90
38568;DHT22;24338;48.280;10.970;2022-09-21T04:47:24;3.60;99.90
38568;DHT22;24338;48.280;10.970;2022-09-21T04:49:51;3.60;99.90
38568;DHT22;24338;48.280;10.970;2022-09-21T04:52:20;3.60;99.90
38568;DHT22;24338;48.280;10.970;2022-09-21T04:54:47;3.60;99.90
38568;DHT22;24338;48.280;10.970;2022-09-21T04:57:14;3.60;99.90
38568;DHT22;24338;48.280;10.970;2022-09-21T04:59:41;3.60;99.90
38568;DHT22;24338;48.280;10.970;2022-09-21T05:02:08;3.50;99.90
38568;DHT22;24338;48.280;10.970;2022-09-21T05:04:34;3.40;99.90
38568;DHT22;24338;48.280;10.970;2022-09-21T05:07:01;3.40;99.90
38568;DHT22;24338;48.280;10.970;2022-09-21T05:09:28;3.40;99.90
38568;DHT22;24338;48.280;10.970;2022-09-21T05:12:13;3.40;99.90
38568;DHT22;24338;48.280;10.970;2022-09-21T05:14:40;3.40;99.90
38568;DHT22;24338;48.280;10.970;2022-09-21T05:17:10;3.50;99.90
38568;DHT22;24338;48.280;10.970;2022-09-21T05:19:37;3.50;99.90
38568;DHT22;24338;48.280;10.970;2022-09-21T05:22:04;3.50;99.90
38568;DHT22;24338;48.280;10.970;2022-09-21T05:24:31;3.50;99.90
38568;DHT22;24338;48.280;10.970;2022-09-21T05:26:58;3.50;99.90
38568;DHT22;24338;48.280;10.970;2022-09-21T05:29:25;3.50;99.90
38568;DHT22;24338;48.280;10.970;2022-09-21T05:38:04;3.50;99.90
38568;DHT22;24338;48.280;10.970;2022-09-21T05:40:23;3.50;99.90
38568;DHT22;24338;48.280;10.970;2022-09-21T05:42:50;3.50;99.90
38568;DHT22;24338;48.280;10.970;2022-09-21T05:45:17;3.60;99.90
38568;DHT22;24338;48.280;10.970;2022-09-21T06:01:24;3.70;99.90
38568;DHT22;24338;48.280;10.970;2022-09-21T06:03:54;3.80;99.90
38568;DHT22;24338;48.280;10.970;2022-09-21T06:06:22;3.80;99.90
38568;DHT22;24338;48.280;10.970;2022-09-21T06:08:49;3.80;99.90
38568;DHT22;24338;48.280;10.970;2022-09-21T06:11:16;3.90;99.90
38568;DHT22;24338;48.280;10.970;2022-09-21T06:13:43;3.90;99.90
38568;DHT22;24338;48.280;10.970;2022-09-21T06:16:10;3.90;99.90
38568;DHT22;24338;48.280;10.970;2022-09-21T06:18:38;3.90;99.90
38568;DHT22;24338;48.280;10.970;2022-09-21T06:21:06;4.00;99.90
38568;DHT22;24338;48.280;10.970;2022-09-21T06:23:34;4.00;99.90
38568;DHT22;24338;48.280;10.970;2022-09-21T06:26:01;4.10;99.90
38568;DHT22;24338;48.280;10.970;2022-09-21T06:28:28;4.10;99.90
38568;DHT22;24338;48.280;10.970;2022-09-21T06:30:56;4.20;99.90
38568;DHT22;24338;48.280;10.970;2022-09-21T06:33:23;4.20;99.90
38568;DHT22;24338;48.280;10.970;2022-09-21T06:38:19;4.30;99.90
38568;DHT22;24338;48.280;10.970;2022-09-21T06:40:46;4.30;99.90
38568;DHT22;24338;48.280;10.970;2022-09-21T06:43:13;4.40;99.90
38568;DHT22;24338;48.280;10.970;2022-09-21T06:45:40;4.40;99.90
38568;DHT22;24338;48.280;10.970;2022-09-21T06:48:07;4.50;99.90
38568;DHT22;24338;48.280;10.970;2022-09-21T06:50:33;4.60;99.90
38568;DHT22;24338;48.280;10.970;2022-09-21T06:53:01;4.60;99.90
38568;DHT22;24338;48.280;10.970;2022-09-21T06:55:29;4.70;99.90
38568;DHT22;24338;48.280;10.970;2022-09-21T06:58:00;4.80;99.90
38568;DHT22;24338;48.280;10.970;2022-09-21T07:00:28;4.80;99.90
38568;DHT22;24338;48.280;10.970;2022-09-21T07:02:58;4.90;99.90
38568;DHT22;24338;48.280;10.970;2022-09-21T07:05:25;5.00;99.90
38568;DHT22;24338;48.280;10.970;2022-09-21T07:07:56;5.20;99.90
38568;DHT22;24338;48.280;10.970;2022-09-21T07:10:24;5.30;99.90
38568;DHT22;24338;48.280;10.970;2022-09-21T07:12:51;5.30;99.90
38568;DHT22;24338;48.280;10.970;2022-09-21T07:15:18;5.40;99.90
38568;DHT22;24338;48.280;10.970;2022-09-21T07:17:46;5.50;99.90
38568;DHT22;24338;48.280;10.970;2022-09-21T07:20:17;5.60;99.90
38568;DHT22;24338;48.280;10.970;2022-09-21T07:22:44;5.80;99.90
38568;DHT22;24338;48.280;10.970;2022-09-21T07:25:11;6.00;99.90
38568;DHT22;24338;48.280;10.970;2022-09-21T07:27:38;6.10;99.90
38568;DHT22;24338;48.280;10.970;2022-09-21T07:30:06;6.10;99.90
38568;DHT22;24338;48.280;10.970;2022-09-21T07:32:33;6.20;99.90
38568;DHT22;24338;48.280;10.970;2022-09-21T07:35:00;6.20;99.90
38568;DHT22;24338;48.280;10.970;2022-09-21T07:37:27;6.30;99.90
38568;DHT22;24338;48.280;10.970;2022-09-21T07:39:54;6.50;99.90
38568;DHT22;24338;48.280;10.970;2022-09-21T07:42:21;6.70;99.90
38568;DHT22;24338;48.280;10.970;2022-09-21T07:44:51;6.80;99.90
38568;DHT22;24338;48.280;10.970;2022-09-21T07:47:29;6.90;99.90
38568;DHT22;24338;48.280;10.970;2022-09-21T07:49:56;7.00;99.90
38568;DHT22;24338;48.280;10.970;2022-09-21T07:52:23;7.10;99.90
38568;DHT22;24338;48.280;10.970;2022-09-21T07:54:50;7.20;99.90
38568;DHT22;24338;48.280;10.970;2022-09-21T07:57:17;7.20;99.90
38568;DHT22;24338;48.280;10.970;2022-09-21T08:00:03;7.30;99.90
38568;DHT22;24338;48.280;10.970;2022-09-21T08:02:30;7.40;99.90
38568;DHT22;24338;48.280;10.970;2022-09-21T08:04:57;7.60;99.90
38568;DHT22;24338;48.280;10.970;2022-09-21T08:07:24;7.70;99.90
38568;DHT22;24338;48.280;10.970;2022-09-21T08:09:50;7.80;99.90
38568;DHT22;24338;48.280;10.970;2022-09-21T08:12:17;7.90;99.90
38568;DHT22;24338;48.280;10.970;2022-09-21T08:14:46;8.00;99.90
38568;DHT22;24338;48.280;10.970;2022-09-21T08:17:13;8.10;99.90
38568;DHT22;24338;48.280;10.970;2022-09-21T08:19:40;8.20;99.90
38568;DHT22;24338;48.280;10.970;2022-09-21T08:22:07;8.30;99.90
38568;DHT22;24338;48.280;10.970;2022-09-21T08:24:34;8.40;99.90
38568;DHT22;24338;48.280;10.970;2022-09-21T08:27:02;8.40;99.90
38568;DHT22;24338;48.280;10.970;2022-09-21T08:29:29;8.50;99.90
38568;DHT22;24338;48.280;10.970;2022-09-21T08:31:56;8.60;99.90
38568;DHT22;24338;48.280;10.970;2022-09-21T08:34:23;8.60;99.90
38568;DHT22;24338;48.280;10.970;2022-09-21T08:36:51;8.70;99.90
38568;DHT22;24338;48.280;10.970;2022-09-21T08:39:21;8.70;99.90
38568;DHT22;24338;48.280;10.970;2022-09-21T08:41:54;8.70;99.90
38568;DHT22;24338;48.280;10.970;2022-09-21T08:44:31;8.80;99.90
38568;DHT22;24338;48.280;10.970;2022-09-21T08:47:15;8.90;99.90
38568;DHT22;24338;48.280;10.970;2022-09-21T08:49:54;8.90;99.90
38568;DHT22;24338;48.280;10.970;2022-09-21T08:52:24;9.10;99.90
38568;DHT22;24338;48.280;10.970;2022-09-21T08:55:00;9.10;99.90
38568;DHT22;24338;48.280;10.970;2022-09-21T08:57:30;9.30;99.90
38568;DHT22;24338;48.280;10.970;2022-09-21T08:59:58;9.30;99.90
38568;DHT22;24338;48.280;10.970;2022-09-21T09:18:52;10.00;99.90
38568;DHT22;24338;48.280;10.970;2022-09-21T09:21:28;10.20;99.90
38568;DHT22;24338;48.280;10.970;2022-09-21T09:24:34;10.30;99.90
38568;DHT22;24338;48.280;10.970;2022-09-21T09:32:38;10.80;99.90
38568;DHT22;24338;48.280;10.970;2022-09-21T09:35:19;11.00;99.90
38568;DHT22;24338;48.280;10.970;2022-09-21T09:37:48;11.20;99.90
38568;DHT22;24338;48.280;10.970;2022-09-21T09:40:21;11.30;99.90
38568;DHT22;24338;48.280;10.970;2022-09-21T09:43:09;11.40;99.90
38568;DHT22;24338;48.280;10.970;2022-09-21T09:46:11;11.60;99.90
38568;DHT22;24338;48.280;10.970;2022-09-21T09:48:53;11.60;99.90
38568;DHT22;24338;48.280;10.970;2022-09-21T09:51:26;11.70;99.90
38568;DHT22;24338;48.280;10.970;2022-09-21T09:53:57;11.80;99.90
38568;DHT22;24338;48.280;10.970;2022-09-21T09:56:25;11.90;99.90
38568;DHT22;24338;48.280;10.970;2022-09-21T09:58:58;11.90;99.90
38568;DHT22;24338;48.280;10.970;2022-09-21T10:04:14;12.10;99.90
38568;DHT22;24338;48.280;10.970;2022-09-21T10:06:42;12.10;99.90
38568;DHT22;24338;48.280;10.970;2022-09-21T10:12:02;12.20;99.90
38568;DHT22;24338;48.280;10.970;2022-09-21T10:14:47;12.30;99.90
38568;DHT22;24338;48.280;10.970;2022-09-21T10:17:16;12.40;99.90
38568;DHT22;24338;48.280;10.970;2022-09-21T10:19:43;12.50;99.90
38568;DHT22;24338;48.280;10.970;2022-09-21T10:22:18;12.60;99.90
38568;DHT22;24338;48.280;10.970;2022-09-21T10:24:49;12.70;99.90
38568;DHT22;24338;48.280;10.970;2022-09-21T10:27:22;12.80;99.90
38568;DHT22;24338;48.280;10.970;2022-09-21T10:29:50;12.80;99.90
38568;DHT22;24338;48.280;10.970;2022-09-21T10:32:21;12.90;99.90
38568;DHT22;24338;48.280;10.970;2022-09-21T10:37:31;12.90;99.90
38568;DHT22;24338;48.280;10.970;2022-09-21T10:40:08;13.00;99.90
38568;DHT22;24338;48.280;10.970;2022-09-21T10:42:53;13.00;99.90
38568;DHT22;24338;48.280;10.970;2022-09-21T10:45:32;13.10;99.90
38568;DHT22;24338;48.280;10.970;2022-09-21T10:50:40;13.30;99.90
38568;DHT22;24338;48.280;10.970;2022-09-21T10:55:45;13.40;99.90
38568;DHT22;24338;48.280;10.970;2022-09-21T10:58:33;13.40;99.90
38568;DHT22;24338;48.280;10.970;2022-09-21T11:01:20;13.30;99.90
38568;DHT22;24338;48.280;10.970;2022-09-21T11:03:52;13.40;99.90
38568;DHT22;24338;48.280;10.970;2022-09-21T11:06:34;13.60;99.90
38568;DHT22;24338;48.280;10.970;2022-09-21T11:09:05;13.90;99.90
38568;DHT22;24338;48.280;10.970;2022-09-21T11:11:52;14.00;99.90
38568;DHT22;24338;48.280;10.970;2022-09-21T11:20:10;14.50;99.90
38568;DHT22;24338;48.280;10.970;2022-09-21T11:25:47;14.30;99.90
38568;DHT22;24338;48.280;10.970;2022-09-21T11:28:27;14.10;99.90
38568;DHT22;24338;48.280;10.970;2022-09-21T11:44:53;14.60;99.90
38568;DHT22;24338;48.280;10.970;2022-09-21T11:50:44;15.10;99.90
38568;DHT22;24338;48.280;10.970;2022-09-21T12:12:39;15.00;99.90
38568;DHT22;24338;48.280;10.970;2022-09-21T12:14:49;14.70;99.90
38568;DHT22;24338;48.280;10.970;2022-09-21T12:17:43;15.00;99.90
38568;DHT22;24338;48.280;10.970;2022-09-21T12:22:44;14.80;99.90
38568;DHT22;24338;48.280;10.970;2022-09-21T12:25:20;14.50;99.90
38568;DHT22;24338;48.280;10.970;2022-09-21T12:28:16;14.50;99.90
38568;DHT22;24338;48.280;10.970;2022-09-21T12:30:46;14.60;99.90
38568;DHT22;24338;48.280;10.970;2022-09-21T12:35:54;15.10;99.90
38568;DHT22;24338;48.280;10.970;2022-09-21T12:41:04;15.50;98.60
38568;DHT22;24338;48.280;10.970;2022-09-21T12:43:44;15.70;98.70
38568;DHT22;24338;48.280;10.970;2022-09-21T12:48:48;15.80;97.40
38568;DHT22;24338;48.280;10.970;2022-09-21T12:53:53;16.10;95.30
38568;DHT22;24338;48.280;10.970;2022-09-21T13:07:58;16.20;92.80
38568;DHT22;24338;48.280;10.970;2022-09-21T13:12:57;16.00;92.50
38568;DHT22;24338;48.280;10.970;2022-09-21T13:15:31;15.90;92.20
38568;DHT22;24338;48.280;10.970;2022-09-21T13:18:01;16.00;91.40
38568;DHT22;24338;48.280;10.970;2022-09-21T13:20:36;16.10;91.20
38568;DHT22;24338;48.280;10.970;2022-09-21T13:23:50;16.20;91.80
38568;DHT22;24338;48.280;10.970;2022-09-21T13:26:10;16.50;91.90
38568;DHT22;24338;48.280;10.970;2022-09-21T13:31:38;16.60;88.80
38568;DHT22;24338;48.280;10.970;2022-09-21T13:39:55;16.40;91.10
38568;DHT22;24338;48.280;10.970;2022-09-21T13:42:46;16.30;90.90
38568;DHT22;24338;48.280;10.970;2022-09-21T13:47:53;16.00;86.20
38568;DHT22;24338;48.280;10.970;2022-09-21T13:50:25;15.70;86.80
38568;DHT22;24338;48.280;10.970;2022-09-21T13:52:59;15.60;86.50
38568;DHT22;24338;48.280;10.970;2022-09-21T13:55:33;15.60;85.80
38568;DHT22;24338;48.280;10.970;2022-09-21T14:01:13;15.70;89.90
38568;DHT22;24338;48.280;10.970;2022-09-21T14:04:05;15.80;88.80
38568;DHT22;24338;48.280;10.970;2022-09-21T14:06:43;15.70;88.60
38568;DHT22;24338;48.280;10.970;2022-09-21T14:09:40;15.60;89.50
38568;DHT22;24338;48.280;10.970;2022-09-21T14:12:16;15.60;86.20
38568;DHT22;24338;48.280;10.970;2022-09-21T14:17:45;15.80;89.60
38568;DHT22;24338;48.280;10.970;2022-09-21T14:20:33;15.90;90.10
38568;DHT22;24338;48.280;10.970;2022-09-21T14:28:15;16.10;87.00
38568;DHT22;24338;48.280;10.970;2022-09-21T14:30:54;16.10;87.30
38568;DHT22;24338;48.280;10.970;2022-09-21T14:33:26;16.00;86.70
38568;DHT22;24338;48.280;10.970;2022-09-21T14:35:55;15.90;86.60
38568;DHT22;24338;48.280;10.970;2022-09-21T14:38:30;15.70;88.10
38568;DHT22;24338;48.280;10.970;2022-09-21T14:41:06;15.60;87.00
38568;DHT22;24338;48.280;10.970;2022-09-21T14:43:35;15.60;87.30
38568;DHT22;24338;48.280;10.970;2022-09-21T14:54:20;15.70;86.00
38568;DHT22;24338;48.280;10.970;2022-09-21T14:57:20;15.70;82.10
38568;DHT22;24338;48.280;10.970;2022-09-21T15:01:13;15.70;87.60
38568;DHT22;24338;48.280;10.970;2022-09-21T15:05:35;15.60;89.40
38568;DHT22;24338;48.280;10.970;2022-09-21T15:11:19;15.30;86.80
38568;DHT22;24338;48.280;10.970;2022-09-21T15:14:16;15.00;88.00
38568;DHT22;24338;48.280;10.970;2022-09-21T15:16:48;14.70;90.90
38568;DHT22;24338;48.280;10.970;2022-09-21T15:19:26;14.70;90.40
38568;DHT22;24338;48.280;10.970;2022-09-21T15:22:16;14.70;90.00
38568;DHT22;24338;48.280;10.970;2022-09-21T15:24:57;14.70;90.40
38568;DHT22;24338;48.280;10.970;2022-09-21T15:27:29;14.80;89.20
38568;DHT22;24338;48.280;10.970;2022-09-21T15:30:02;14.80;90.40
38568;DHT22;24338;48.280;10.970;2022-09-21T15:32:35;14.90;90.40
38568;DHT22;24338;48.280;10.970;2022-09-21T15:35:05;14.80;90.60
38568;DHT22;24338;48.280;10.970;2022-09-21T15:37:35;14.80;91.50
38568;DHT22;24338;48.280;10.970;2022-09-21T15:40:05;14.80;91.00
38568;DHT22;24338;48.280;10.970;2022-09-21T15:42:45;14.80;90.80
38568;DHT22;24338;48.280;10.970;2022-09-21T15:45:29;14.70;90.40
38568;DHT22;24338;48.280;10.970;2022-09-21T15:47:59;14.70;89.30
38568;DHT22;24338;48.280;10.970;2022-09-21T15:50:27;14.60;90.30
38568;DHT22;24338;48.280;10.970;2022-09-21T15:53:05;14.50;90.60
38568;DHT22;24338;48.280;10.970;2022-09-21T15:55:34;14.40;91.00
38568;DHT22;24338;48.280;10.970;2022-09-21T15:58:01;14.20;92.40
38568;DHT22;24338;48.280;10.970;2022-09-21T16:00:38;14.20;92.70
38568;DHT22;24338;48.280;10.970;2022-09-21T16:03:15;14.10;91.60
38568;DHT22;24338;48.280;10.970;2022-09-21T16:05:50;14.00;92.30
38568;DHT22;24338;48.280;10.970;2022-09-21T16:08:33;14.00;93.90
38568;DHT22;24338;48.280;10.970;2022-09-21T16:13:59;13.90;94.00
38568;DHT22;24338;48.280;10.970;2022-09-21T16:22:39;13.70;93.70
38568;DHT22;24338;48.280;10.970;2022-09-21T16:25:24;13.70;94.10
38568;DHT22;24338;48.280;10.970;2022-09-21T16:27:58;13.60;95.00
38568;DHT22;24338;48.280;10.970;2022-09-21T16:30:49;13.50;95.80
38568;DHT22;24338;48.280;10.970;2022-09-21T16:33:43;13.40;95.00
38568;DHT22;24338;48.280;10.970;2022-09-21T16:38:59;13.20;94.50
38568;DHT22;24338;48.280;10.970;2022-09-21T16:41:33;13.10;95.70
38568;DHT22;24338;48.280;10.970;2022-09-21T16:44:00;13.00;95.90
38568;DHT22;24338;48.280;10.970;2022-09-21T16:46:29;12.90;96.40
38568;DHT22;24338;48.280;10.970;2022-09-21T16:48:58;12.80;97.10
38568;DHT22;24338;48.280;10.970;2022-09-21T16:51:26;12.70;97.90
38568;DHT22;24338;48.280;10.970;2022-09-21T16:53:54;12.60;98.40
38568;DHT22;24338;48.280;10.970;2022-09-21T16:56:22;12.50;99.60
38568;DHT22;24338;48.280;10.970;2022-09-21T16:58:49;12.40;99.90
38568;DHT22;24338;48.280;10.970;2022-09-21T17:01:17;12.30;99.90
38568;DHT22;24338;48.280;10.970;2022-09-21T17:03:47;12.20;99.90
38568;DHT22;24338;48.280;10.970;2022-09-21T17:06:19;12.10;99.90
38568;DHT22;24338;48.280;10.970;2022-09-21T17:08:48;12.00;99.90
38568;DHT22;24338;48.280;10.970;2022-09-21T17:11:15;11.80;99.90
38568;DHT22;24338;48.280;10.970;2022-09-21T17:13:48;11.80;99.90
38568;DHT22;24338;48.280;10.970;2022-09-21T17:16:17;11.70;99.90
38568;DHT22;24338;48.280;10.970;2022-09-21T17:18:46;11.50;99.90
38568;DHT22;24338;48.280;10.970;2022-09-21T17:21:15;11.40;99.90
38568;DHT22;24338;48.280;10.970;2022-09-21T17:23:42;11.40;99.90
38568;DHT22;24338;48.280;10.970;2022-09-21T17:26:12;11.30;99.90
38568;DHT22;24338;48.280;10.970;2022-09-21T17:28:43;11.20;99.90
38568;DHT22;24338;48.280;10.970;2022-09-21T17:31:11;11.10;99.90
38568;DHT22;24338;48.280;10.970;2022-09-21T17:33:39;11.00;99.90
38568;DHT22;24338;48.280;10.970;2022-09-21T17:36:13;10.90;99.90
38568;DHT22;24338;48.280;10.970;2022-09-21T17:38:40;10.80;99.90
38568;DHT22;24338;48.280;10.970;2022-09-21T17:41:23;10.70;99.90
38568;DHT22;24338;48.280;10.970;2022-09-21T17:44:09;10.60;99.90
38568;DHT22;24338;48.280;10.970;2022-09-21T17:46:59;10.50;99.90
38568;DHT22;24338;48.280;10.970;2022-09-21T17:49:30;10.50;99.90
38568;DHT22;24338;48.280;10.970;2022-09-21T17:51:57;10.40;99.90
38568;DHT22;24338;48.280;10.970;2022-09-21T17:54:43;10.30;99.90
38568;DHT22;24338;48.280;10.970;2022-09-21T18:00:07;10.10;99.90
38568;DHT22;24338;48.280;10.970;2022-09-21T18:02:35;10.10;99.90
38568;DHT22;24338;48.280;10.970;2022-09-21T18:05:09;10.00;99.90
38568;DHT22;24338;48.280;10.970;2022-09-21T18:10:11;9.90;99.90
38568;DHT22;24338;48.280;10.970;2022-09-21T18:20:57;9.60;99.90
38568;DHT22;24338;48.280;10.970;2022-09-21T18:26:26;9.50;99.90
38568;DHT22;24338;48.280;10.970;2022-09-21T18:28:53;9.50;99.90
38568;DHT22;24338;48.280;10.970;2022-09-21T18:31:33;9.50;99.90
38568;DHT22;24338;48.280;10.970;2022-09-21T18:37:20;9.30;99.90
38568;DHT22;24338;48.280;10.970;2022-09-21T18:39:53;9.20;99.90
38568;DHT22;24338;48.280;10.970;2022-09-21T18:45:26;9.10;99.90
38568;DHT22;24338;48.280;10.970;2022-09-21T18:53:35;8.90;99.90
38568;DHT22;24338;48.280;10.970;2022-09-21T18:56:05;8.80;99.90
38568;DHT22;24338;48.280;10.970;2022-09-21T18:58:33;8.80;99.90
38568;DHT22;24338;48.280;10.970;2022-09-21T19:01:00;8.70;99.90
38568;DHT22;24338;48.280;10.970;2022-09-21T19:03:27;8.70;99.90
38568;DHT22;24338;48.280;10.970;2022-09-21T19:08:38;8.60;99.90
38568;DHT22;24338;48.280;10.970;2022-09-21T19:11:33;8.50;99.90
38568;DHT22;24338;48.280;10.970;2022-09-21T19:20:02;8.40;99.90
38568;DHT22;24338;48.280;10.970;2022-09-21T19:22:43;8.30;99.90
38568;DHT22;24338;48.280;10.970;2022-09-21T19:31:13;8.10;99.90
38568;DHT22;24338;48.280;10.970;2022-09-21T19:33:40;8.10;99.90
38568;DHT22;24338;48.280;10.970;2022-09-21T19:36:22;8.00;99.90
38568;DHT22;24338;48.280;10.970;2022-09-21T19:38:50;8.00;99.90
38568;DHT22;24338;48.280;10.970;2022-09-21T19:46:37;7.90;99.90
38568;DHT22;24338;48.280;10.970;2022-09-21T19:49:18;7.80;99.90
38568;DHT22;24338;48.280;10.970;2022-09-21T19:51:49;7.80;99.90
38568;DHT22;24338;48.280;10.970;2022-09-21T19:54:21;7.70;99.90
38568;DHT22;24338;48.280;10.970;2022-09-21T19:57:18;7.70;99.90
38568;DHT22;24338;48.280;10.970;2022-09-21T20:00:10;7.70;99.90
38568;DHT22;24338;48.280;10.970;2022-09-21T20:03:01;7.60;99.90
38568;DHT22;24338;48.280;10.970;2022-09-21T20:08:54;7.60;99.90
38568;DHT22;24338;48.280;10.970;2022-09-21T20:11:42;7.60;99.90
38568;DHT22;24338;48.280;10.970;2022-09-21T20:16:52;7.50;99.90
38568;DHT22;24338;48.280;10.970;2022-09-21T20:22:36;7.40;99.90